METAR Data
IDs: Format: Raw Decoded Include TAF

Data at: 1838 UTC 26 Sep 2021

METAR for:KARW (Beaufort Cnty, GA, US)
Text:KARW 261835Z AUTO 00000KT 10SM CLR 27/14 A3009 RMK AO2
Temperature: 27.0°C ( 81°F)
Dewpoint: 14.0°C ( 57°F) [RH = 45%]
Pressure (altimeter):30.09 inches Hg (1019.0 mb)
Winds:calm
Visibility:10 or more sm (16+ km)
Ceiling:at least 12,000 feet AGL
Clouds:sky clear below 12,000 feet AGL
QC Flag:automated observation with no human augmentation

TAF for:KARW (Beaufort Cnty, GA, US)
Text:No data found